Time;durP1;ratioP1;P1;durP2;ratioP2;P2;SDS_P1;SDS_P2;PMS_P1;PMS_P2;Temp;Humidity;BMP_temperature;BMP_pressure;BME280_temperature;BME280_humidity;BME280_pressure;Samples;Min_cycle;Max_cycle;Signal;HPM_P1;HPM_P2
2021/07/21 00:00:22;;;;;;;9.60;7.68;;;;;;;;;;5074557;28;20096;-88
2021/07/21 00:02:47;;;;;;;9.18;7.82;;;;;;;;;;5059627;28;20041;-87
2021/07/21 00:05:12;;;;;;;11.15;7.55;;;;;;;;;;5054356;28;20021;-86
2021/07/21 00:07:38;;;;;;;12.65;7.75;;;;;;;;;;5053696;28;20105;-87
2021/07/21 00:10:04;;;;;;;12.80;7.55;;;;;;;;;;5053276;28;20764;-87
2021/07/21 00:15:13;;;;;;;12.23;7.60;;;;;;;;;;5054363;28;20078;-87
2021/07/21 00:17:39;;;;;;;8.00;6.78;;;;;;;;;;5069941;28;20016;-87
2021/07/21 00:20:09;;;;;;;9.85;7.03;;;;;;;;;;5073599;28;20341;-86
2021/07/21 00:22:44;;;;;;;8.43;7.45;;;;;;;;;;5062908;28;20021;-87
2021/07/21 00:25:12;;;;;;;9.90;7.43;;;;;;;;;;5038663;28;20025;-88
2021/07/21 00:27:38;;;;;;;10.38;7.93;;;;;;;;;;5053315;28;20021;-88
2021/07/21 00:30:05;;;;;;;11.48;6.97;;;;;;;;;;5054174;28;20021;-87
2021/07/21 00:32:35;;;;;;;9.48;7.38;;;;;;;;;;5035952;28;20036;-87
2021/07/21 00:35:00;;;;;;;10.32;7.47;;;;;;;;;;5053780;28;20025;-87
2021/07/21 00:37:28;;;;;;;10.80;7.40;;;;;;;;;;5053633;28;20021;-87
2021/07/21 00:39:53;;;;;;;9.20;6.88;;;;;;;;;;5053646;28;20104;-88
2021/07/21 00:42:18;;;;;;;8.02;7.00;;;;;;;;;;5053188;28;20235;-88
2021/07/21 00:44:44;;;;;;;9.23;7.00;;;;;;;;;;5053604;28;20159;-88
2021/07/21 00:47:09;;;;;;;11.10;7.88;;;;;;;;;;5057740;28;20024;-87
2021/07/21 00:49:35;;;;;;;8.07;6.68;;;;;;;;;;5074965;28;20067;-87
2021/07/21 00:52:03;;;;;;;10.07;6.95;;;;;;;;;;5081543;28;20097;-87
2021/07/21 00:54:30;;;;;;;7.68;6.65;;;;;;;;;;5075998;28;20410;-88
2021/07/21 00:56:58;;;;;;;8.57;6.75;;;;;;;;;;5055123;28;20056;-88
2021/07/21 00:59:23;;;;;;;9.93;6.68;;;;;;;;;;5053087;28;20035;-88
2021/07/21 01:01:49;;;;;;;10.05;6.78;;;;;;;;;;5066569;28;20300;-86
2021/07/21 01:04:14;;;;;;;8.65;7.10;;;;;;;;;;5055991;28;20020;-88
2021/07/21 01:06:42;;;;;;;12.88;7.57;;;;;;;;;;5072513;28;20017;-88
2021/07/21 01:09:10;;;;;;;9.73;6.97;;;;;;;;;;5057490;28;20032;-89
2021/07/21 01:11:42;;;;;;;9.38;6.50;;;;;;;;;;5053048;28;20017;-89
2021/07/21 01:14:26;;;;;;;8.60;7.13;;;;;;;;;;5052974;28;20100;-88
2021/07/21 01:16:56;;;;;;;10.82;7.07;;;;;;;;;;5053373;28;20067;-88
2021/07/21 01:19:40;;;;;;;9.35;7.40;;;;;;;;;;5035261;28;20494;-88
2021/07/21 01:22:10;;;;;;;9.93;7.50;;;;;;;;;;5053252;28;20024;-88
2021/07/21 01:24:35;;;;;;;10.32;7.32;;;;;;;;;;5065443;28;20063;-88
2021/07/21 01:27:14;;;;;;;10.25;7.45;;;;;;;;;;5072924;28;20044;-88
2021/07/21 01:29:42;;;;;;;10.38;7.22;;;;;;;;;;5086764;28;20103;-88
2021/07/21 01:32:08;;;;;;;10.68;8.05;;;;;;;;;;5095642;28;20506;-88
2021/07/21 01:34:36;;;;;;;10.32;7.45;;;;;;;;;;5097476;28;20035;-88
2021/07/21 01:37:02;;;;;;;11.05;7.47;;;;;;;;;;5075373;28;20017;-88
2021/07/21 01:39:32;;;;;;;11.35;7.90;;;;;;;;;;5071722;28;20017;-88
2021/07/21 01:42:02;;;;;;;10.80;7.57;;;;;;;;;;5076693;28;20179;-88
2021/07/21 01:44:31;;;;;;;13.70;7.93;;;;;;;;;;5075734;28;20020;-87
2021/07/21 01:46:58;;;;;;;12.90;7.95;;;;;;;;;;5056821;28;20061;-88
2021/07/21 01:49:29;;;;;;;9.90;8.02;;;;;;;;;;5056897;28;20009;-88
2021/07/21 01:51:56;;;;;;;10.18;8.15;;;;;;;;;;5056220;28;20012;-88
2021/07/21 01:54:22;;;;;;;9.80;7.97;;;;;;;;;;5066057;28;20100;-87
2021/07/21 01:56:48;;;;;;;11.75;8.32;;;;;;;;;;5038302;28;20517;-88
2021/07/21 01:59:13;;;;;;;10.07;7.97;;;;;;;;;;5067538;28;20016;-88
2021/07/21 02:01:38;;;;;;;10.73;7.75;;;;;;;;;;5070485;28;20025;-88
2021/07/21 02:04:05;;;;;;;10.50;7.95;;;;;;;;;;5058019;28;20083;-88
2021/07/21 02:06:31;;;;;;;11.55;8.00;;;;;;;;;;5055689;28;20040;-88
2021/07/21 02:08:59;;;;;;;10.50;8.05;;;;;;;;;;5067155;28;20017;-88
2021/07/21 02:11:27;;;;;;;11.57;7.88;;;;;;;;;;5062986;28;20460;-88
2021/07/21 02:13:58;;;;;;;9.02;7.85;;;;;;;;;;5075805;28;20468;-87
2021/07/21 02:16:24;;;;;;;12.13;8.30;;;;;;;;;;5060542;28;20086;-88
2021/07/21 02:18:51;;;;;;;11.85;7.95;;;;;;;;;;5056139;28;20430;-88
2021/07/21 02:21:19;;;;;;;10.27;7.88;;;;;;;;;;5058433;28;20040;-88
2021/07/21 02:23:46;;;;;;;12.40;8.60;;;;;;;;;;5065494;28;20019;-87
2021/07/21 02:26:15;;;;;;;12.48;8.50;;;;;;;;;;5076422;28;20042;-88
2021/07/21 02:28:40;;;;;;;15.52;8.10;;;;;;;;;;5076256;28;20043;-88
2021/07/21 02:31:08;;;;;;;10.68;7.40;;;;;;;;;;5076478;28;20126;-88
2021/07/21 02:33:42;;;;;;;10.75;8.85;;;;;;;;;;5063026;28;20102;-87
2021/07/21 02:36:08;;;;;;;11.43;8.48;;;;;;;;;;5066494;28;20025;-89
2021/07/21 02:38:33;;;;;;;13.88;8.85;;;;;;;;;;5076048;28;20028;-88
2021/07/21 02:40:58;;;;;;;13.40;8.93;;;;;;;;;;5071488;28;20151;-88
2021/07/21 02:43:23;;;;;;;12.07;8.32;;;;;;;;;;5075032;28;20021;-89
2021/07/21 02:45:51;;;;;;;12.85;7.90;;;;;;;;;;5061407;28;20025;-88
2021/07/21 02:48:16;;;;;;;12.30;8.90;;;;;;;;;;5055524;28;20471;-89
2021/07/21 02:50:45;;;;;;;10.93;8.77;;;;;;;;;;5055253;28;20072;-88
2021/07/21 02:53:13;;;;;;;11.65;8.05;;;;;;;;;;5070007;28;20024;-88
2021/07/21 02:55:43;;;;;;;10.57;8.30;;;;;;;;;;5054942;28;20036;-88
2021/07/21 02:58:27;;;;;;;9.75;8.25;;;;;;;;;;5055092;28;20032;-88
2021/07/21 03:00:56;;;;;;;10.13;8.38;;;;;;;;;;5055589;28;20045;-88
2021/07/21 03:03:24;;;;;;;13.18;8.30;;;;;;;;;;5055402;28;20049;-88
2021/07/21 03:05:53;;;;;;;11.57;8.60;;;;;;;;;;5069933;28;20510;-87
2021/07/21 03:08:21;;;;;;;12.05;8.35;;;;;;;;;;5054981;28;20021;-88
2021/07/21 03:10:47;;;;;;;10.52;8.10;;;;;;;;;;5060872;28;20036;-89
2021/07/21 03:13:16;;;;;;;9.50;8.30;;;;;;;;;;5058632;28;20040;-88
2021/07/21 03:15:42;;;;;;;10.63;8.07;;;;;;;;;;5060607;28;20349;-90
2021/07/21 03:18:11;;;;;;;13.95;8.88;;;;;;;;;;5075429;28;20028;-90
2021/07/21 03:20:40;;;;;;;9.63;8.20;;;;;;;;;;5057875;28;20346;-87
2021/07/21 03:23:06;;;;;;;10.82;8.18;;;;;;;;;;5054938;28;20013;-88
2021/07/21 03:25:34;;;;;;;9.98;7.80;;;;;;;;;;5062993;28;20564;-88
2021/07/21 03:28:02;;;;;;;11.80;8.48;;;;;;;;;;5055078;28;20060;-89
2021/07/21 03:30:28;;;;;;;11.18;8.30;;;;;;;;;;5077437;28;20107;-88
2021/07/21 03:32:55;;;;;;;11.88;8.43;;;;;;;;;;5095188;28;20089;-88
2021/07/21 03:35:28;;;;;;;9.57;7.80;;;;;;;;;;5085778;28;20024;-88
2021/07/21 03:37:57;;;;;;;14.95;8.23;;;;;;;;;;5057012;28;20020;-89
2021/07/21 03:40:23;;;;;;;12.43;8.20;;;;;;;;;;5074220;28;20058;-89
2021/07/21 03:42:50;;;;;;;13.57;8.52;;;;;;;;;;5074395;28;20025;-88
2021/07/21 03:45:16;;;;;;;13.35;9.45;;;;;;;;;;5068422;28;20175;-89
2021/07/21 03:47:42;;;;;;;11.15;8.15;;;;;;;;;;5054220;28;20349;-89
2021/07/21 03:50:08;;;;;;;13.32;8.85;;;;;;;;;;5053970;28;20024;-89
2021/07/21 03:52:34;;;;;;;13.05;8.98;;;;;;;;;;5036356;28;20023;-88
2021/07/21 03:55:00;;;;;;;14.05;9.68;;;;;;;;;;5069130;28;20108;-89
2021/07/21 03:57:26;;;;;;;14.52;8.95;;;;;;;;;;5081010;28;20029;-89
2021/07/21 03:59:51;;;;;;;12.10;8.82;;;;;;;;;;5088853;28;20077;-89
2021/07/21 04:02:17;;;;;;;13.32;8.90;;;;;;;;;;5082802;28;20119;-89
2021/07/21 04:04:44;;;;;;;10.98;8.88;;;;;;;;;;5076676;28;20345;-89
2021/07/21 04:07:12;;;;;;;12.57;9.23;;;;;;;;;;5094635;28;20034;-90
2021/07/21 04:09:41;;;;;;;16.30;9.43;;;;;;;;;;5094802;28;20474;-89
2021/07/21 04:12:06;;;;;;;10.75;8.60;;;;;;;;;;5062917;28;20032;-89
2021/07/21 04:14:32;;;;;;;11.27;8.38;;;;;;;;;;5054087;28;20432;-89
2021/07/21 04:17:00;;;;;;;11.85;8.50;;;;;;;;;;5053790;28;20105;-90
2021/07/21 04:19:28;;;;;;;11.18;8.77;;;;;;;;;;5054254;28;20112;-89
2021/07/21 04:21:54;;;;;;;11.38;8.90;;;;;;;;;;5053173;28;20013;-90
2021/07/21 04:24:22;;;;;;;9.98;8.27;;;;;;;;;;5073610;28;20020;-89
2021/07/21 04:26:48;;;;;;;10.20;8.52;;;;;;;;;;5073500;28;20024;-89
2021/07/21 04:29:15;;;;;;;13.45;9.00;;;;;;;;;;5053964;28;20409;-89
2021/07/21 04:31:41;;;;;;;13.18;8.32;;;;;;;;;;5053907;28;20017;-91
2021/07/21 04:34:09;;;;;;;12.23;8.55;;;;;;;;;;5071767;28;20024;-90
2021/07/21 04:36:38;;;;;;;10.55;8.70;;;;;;;;;;5073984;28;20134;-89
2021/07/21 04:39:06;;;;;;;12.88;9.00;;;;;;;;;;5074140;28;20099;-89
2021/07/21 04:41:32;;;;;;;12.45;8.73;;;;;;;;;;5073442;28;20008;-90
2021/07/21 04:43:58;;;;;;;10.02;7.97;;;;;;;;;;5073548;28;20103;-89
2021/07/21 04:46:26;;;;;;;10.48;9.07;;;;;;;;;;5070280;28;20413;-88
2021/07/21 04:48:52;;;;;;;9.63;8.63;;;;;;;;;;5035795;28;20482;-88
2021/07/21 04:51:17;;;;;;;12.35;8.90;;;;;;;;;;5053528;28;20028;-88
2021/07/21 04:53:43;;;;;;;10.18;8.60;;;;;;;;;;5055246;28;20051;-90
2021/07/21 04:56:08;;;;;;;13.80;9.18;;;;;;;;;;5053942;28;20059;-90
2021/07/21 04:58:36;;;;;;;14.27;9.98;;;;;;;;;;5073145;28;20044;-90
2021/07/21 05:01:03;;;;;;;13.05;9.75;;;;;;;;;;5076231;28;20013;-90
2021/07/21 05:03:28;;;;;;;12.95;9.30;;;;;;;;;;5073254;28;20036;-90
2021/07/21 05:05:53;;;;;;;12.48;9.32;;;;;;;;;;5078208;28;20075;-90
2021/07/21 05:08:19;;;;;;;16.17;9.60;;;;;;;;;;5077403;28;20025;-79
2021/07/21 05:10:45;;;;;;;14.90;9.63;;;;;;;;;;5052919;28;20072;-79
2021/07/21 05:13:10;;;;;;;13.13;9.73;;;;;;;;;;5056295;28;20301;-79
2021/07/21 05:15:35;;;;;;;16.80;10.30;;;;;;;;;;5052937;28;20033;-79
2021/07/21 05:18:03;;;;;;;12.32;10.05;;;;;;;;;;5052770;28;20078;-79
2021/07/21 05:20:28;;;;;;;14.52;10.10;;;;;;;;;;5053058;28;20085;-79
2021/07/21 05:22:56;;;;;;;11.63;10.23;;;;;;;;;;5075006;28;20089;-79
2021/07/21 05:25:21;;;;;;;13.15;9.82;;;;;;;;;;5083791;28;20099;-79
2021/07/21 05:27:49;;;;;;;12.15;9.80;;;;;;;;;;5080527;28;20104;-79
2021/07/21 05:30:17;;;;;;;11.45;9.32;;;;;;;;;;5081698;28;20024;-78
2021/07/21 05:32:42;;;;;;;14.13;9.80;;;;;;;;;;5081210;28;20020;-86
2021/07/21 05:35:08;;;;;;;11.20;9.40;;;;;;;;;;5072215;28;20040;-82
2021/07/21 05:37:35;;;;;;;11.15;8.48;;;;;;;;;;5076195;28;20009;-82
2021/07/21 05:40:00;;;;;;;12.68;9.40;;;;;;;;;;5076377;28;20016;-82
2021/07/21 05:42:25;;;;;;;13.45;8.38;;;;;;;;;;5074083;28;20452;-82
2021/07/21 05:44:51;;;;;;;11.43;8.70;;;;;;;;;;5071016;28;20016;-82
2021/07/21 05:47:18;;;;;;;9.50;8.00;;;;;;;;;;5081602;28;20020;-83
2021/07/21 05:49:43;;;;;;;11.93;8.55;;;;;;;;;;5076415;28;20710;-81
2021/07/21 05:52:09;;;;;;;11.30;8.43;;;;;;;;;;5079657;28;20024;-81
2021/07/21 05:54:37;;;;;;;15.70;8.93;;;;;;;;;;5067276;28;20025;-82
2021/07/21 05:57:06;;;;;;;11.60;8.32;;;;;;;;;;5074020;28;20103;-82
2021/07/21 05:59:31;;;;;;;12.80;8.27;;;;;;;;;;5076247;28;20013;-82
2021/07/21 06:01:58;;;;;;;9.57;7.70;;;;;;;;;;5077140;28;20016;-82
2021/07/21 06:04:23;;;;;;;12.05;8.15;;;;;;;;;;5076921;28;20246;-82
2021/07/21 06:06:49;;;;;;;13.23;7.72;;;;;;;;;;5069167;28;20428;-91
2021/07/21 06:09:14;;;;;;;14.43;8.13;;;;;;;;;;5071743;28;20475;-91
2021/07/21 06:11:39;;;;;;;12.02;7.75;;;;;;;;;;5060296;28;20806;-94
2021/07/21 06:14:05;;;;;;;9.90;7.95;;;;;;;;;;5055003;28;20017;-87
2021/07/21 06:16:30;;;;;;;11.32;7.85;;;;;;;;;;5060528;28;20026;-90
2021/07/21 06:18:57;;;;;;;10.35;7.60;;;;;;;;;;5088502;28;20096;-87
2021/07/21 06:21:22;;;;;;;9.90;7.97;;;;;;;;;;5067269;28;20123;-88
2021/07/21 06:23:48;;;;;;;11.07;7.47;;;;;;;;;;5075859;28;20476;-88
2021/07/21 06:26:13;;;;;;;8.30;7.38;;;;;;;;;;5068441;28;20342;-87
2021/07/21 06:28:38;;;;;;;8.63;7.38;;;;;;;;;;5066146;28;20020;-88
2021/07/21 06:31:06;;;;;;;12.27;7.68;;;;;;;;;;5079511;28;20092;-87
2021/07/21 06:33:31;;;;;;;8.88;6.55;;;;;;;;;;5083756;28;20028;-88
2021/07/21 06:35:59;;;;;;;11.10;6.65;;;;;;;;;;5075378;28;20407;-87
2021/07/21 06:38:24;;;;;;;9.00;6.03;;;;;;;;;;5075406;28;20017;-88
2021/07/21 06:40:50;;;;;;;10.25;6.72;;;;;;;;;;5067802;28;20017;-87
2021/07/21 06:43:15;;;;;;;7.50;6.32;;;;;;;;;;5057420;28;20475;-88
2021/07/21 06:45:40;;;;;;;10.82;6.25;;;;;;;;;;5075999;28;20402;-88
2021/07/21 06:48:06;;;;;;;10.98;6.45;;;;;;;;;;5041858;28;20029;-85
2021/07/21 06:50:36;;;;;;;8.55;6.20;;;;;;;;;;5057589;28;20127;-87
2021/07/21 06:53:02;;;;;;;11.55;7.25;;;;;;;;;;5066595;28;20039;-82
2021/07/21 06:55:27;;;;;;;8.60;6.32;;;;;;;;;;5058447;28;20017;-86
2021/07/21 06:57:53;;;;;;;7.60;6.43;;;;;;;;;;5054131;28;20357;-85
2021/07/21 07:00:18;;;;;;;9.05;6.28;;;;;;;;;;5055657;28;20024;-86
2021/07/21 07:02:44;;;;;;;11.15;6.82;;;;;;;;;;5047789;28;20500;-86
2021/07/21 07:05:09;;;;;;;11.10;6.20;;;;;;;;;;5075777;28;20036;-85
2021/07/21 07:07:34;;;;;;;7.70;5.60;;;;;;;;;;5071647;28;20067;-84
2021/07/21 07:10:00;;;;;;;6.55;4.88;;;;;;;;;;5055340;28;20048;-86
2021/07/21 07:12:28;;;;;;;10.65;5.10;;;;;;;;;;5056791;28;20365;-84
2021/07/21 07:14:53;;;;;;;9.13;5.35;;;;;;;;;;5075013;28;20028;-86
2021/07/21 07:17:18;;;;;;;6.77;5.20;;;;;;;;;;5075645;28;20021;-86
2021/07/21 07:19:45;;;;;;;6.32;4.70;;;;;;;;;;5074607;28;20591;-85
2021/07/21 07:22:13;;;;;;;6.90;4.70;;;;;;;;;;5075052;28;20465;-85
2021/07/21 07:24:38;;;;;;;7.30;3.97;;;;;;;;;;5074759;28;20024;-87
2021/07/21 07:27:04;;;;;;;7.53;4.77;;;;;;;;;;5075443;28;20020;-86
2021/07/21 07:29:29;;;;;;;7.55;4.05;;;;;;;;;;5068139;28;20286;-85
2021/07/21 07:31:54;;;;;;;6.28;3.85;;;;;;;;;;5075221;28;20020;-84
2021/07/21 07:34:20;;;;;;;6.30;4.38;;;;;;;;;;5091131;28;20024;-84
2021/07/21 07:36:47;;;;;;;8.40;4.28;;;;;;;;;;5083832;28;20491;-85
2021/07/21 07:39:13;;;;;;;7.32;4.20;;;;;;;;;;5083234;28;20036;-85
2021/07/21 07:41:39;;;;;;;5.75;4.30;;;;;;;;;;5089671;28;20361;-75
2021/07/21 07:44:07;;;;;;;5.85;3.72;;;;;;;;;;5059341;28;20016;-73
2021/07/21 07:46:33;;;;;;;5.80;3.50;;;;;;;;;;5057222;28;20082;-73
2021/07/21 07:48:58;;;;;;;5.07;3.63;;;;;;;;;;5074819;28;20033;-73
2021/07/21 07:51:24;;;;;;;5.38;3.63;;;;;;;;;;5074656;28;20052;-73
2021/07/21 07:53:50;;;;;;;4.25;3.50;;;;;;;;;;5071750;28;20023;-73
2021/07/21 07:56:15;;;;;;;5.80;3.45;;;;;;;;;;5067751;28;20024;-74
2021/07/21 07:58:40;;;;;;;3.85;3.35;;;;;;;;;;5070742;28;20462;-74
2021/07/21 08:01:06;;;;;;;6.80;4.10;;;;;;;;;;5081344;28;20032;-74
2021/07/21 08:03:33;;;;;;;11.97;5.17;;;;;;;;;;5074411;28;20044;-74
2021/07/21 08:05:59;;;;;;;10.18;5.00;;;;;;;;;;5081160;28;20286;-74
2021/07/21 08:08:25;;;;;;;7.22;4.50;;;;;;;;;;5077079;28;20036;-74
2021/07/21 08:10:52;;;;;;;6.80;3.85;;;;;;;;;;5085843;28;20141;-74
2021/07/21 08:13:22;;;;;;;5.20;3.67;;;;;;;;;;5069234;28;20041;-74
2021/07/21 08:15:47;;;;;;;4.93;3.55;;;;;;;;;;5065238;28;20074;-74
2021/07/21 08:18:15;;;;;;;5.45;3.60;;;;;;;;;;5070219;28;20024;-73
2021/07/21 08:20:41;;;;;;;4.30;3.15;;;;;;;;;;5077301;28;20413;-73
2021/07/21 08:23:06;;;;;;;5.15;3.38;;;;;;;;;;5065262;28;20040;-74
2021/07/21 08:25:34;;;;;;;5.13;3.67;;;;;;;;;;5070508;28;20079;-74
2021/07/21 08:28:06;;;;;;;4.28;3.25;;;;;;;;;;5053788;28;20021;-73
2021/07/21 08:30:31;;;;;;;4.45;3.20;;;;;;;;;;5054825;28;20024;-73
2021/07/21 08:32:58;;;;;;;5.07;3.65;;;;;;;;;;5073177;28;20035;-73
2021/07/21 08:35:30;;;;;;;4.63;3.50;;;;;;;;;;5073258;28;20321;-73
2021/07/21 08:37:59;;;;;;;3.90;3.10;;;;;;;;;;5063126;28;20104;-73
2021/07/21 08:40:25;;;;;;;3.22;2.83;;;;;;;;;;5082573;28;20023;-73
2021/07/21 08:42:51;;;;;;;4.68;3.30;;;;;;;;;;5074786;28;20024;-73
2021/07/21 08:45:16;;;;;;;6.93;3.33;;;;;;;;;;5082423;28;20028;-82
2021/07/21 08:47:41;;;;;;;5.18;3.25;;;;;;;;;;5082169;28;20028;-82
2021/07/21 08:50:08;;;;;;;6.82;3.20;;;;;;;;;;5073879;28;20024;-82
2021/07/21 08:52:33;;;;;;;6.75;3.38;;;;;;;;;;5053661;28;20036;-82
2021/07/21 08:55:02;;;;;;;4.78;3.38;;;;;;;;;;5053669;28;20029;-81
2021/07/21 08:57:31;;;;;;;5.60;3.45;;;;;;;;;;5053430;28;20025;-81
2021/07/21 09:00:02;;;;;;;5.68;3.10;;;;;;;;;;5070411;28;20390;-82
2021/07/21 09:02:30;;;;;;;3.70;3.22;;;;;;;;;;5076204;28;20075;-82
2021/07/21 09:04:57;;;;;;;4.28;3.13;;;;;;;;;;5052705;28;20108;-82
2021/07/21 09:07:24;;;;;;;8.60;3.72;;;;;;;;;;5058628;28;20456;-82
2021/07/21 09:09:49;;;;;;;4.40;3.65;;;;;;;;;;5069278;28;20353;-83
2021/07/21 09:12:15;;;;;;;5.18;3.70;;;;;;;;;;5070963;28;20017;-82
2021/07/21 09:14:41;;;;;;;6.53;3.80;;;;;;;;;;5093598;28;20356;-83
2021/07/21 09:17:13;;;;;;;21.27;17.40;;;;;;;;;;5093827;28;20027;-83
2021/07/21 09:19:43;;;;;;;14.55;10.57;;;;;;;;;;5092823;28;20138;-83
2021/07/21 09:22:13;;;;;;;8.85;4.53;;;;;;;;;;5070955;28;20021;-81
2021/07/21 09:24:39;;;;;;;7.28;4.00;;;;;;;;;;5077063;28;20028;-76
2021/07/21 09:27:05;;;;;;;5.43;3.50;;;;;;;;;;5080506;28;20027;-83
2021/07/21 09:29:30;;;;;;;6.18;3.85;;;;;;;;;;5071043;28;20024;-83
2021/07/21 09:31:58;;;;;;;5.28;4.10;;;;;;;;;;5077990;28;20028;-83
2021/07/21 09:34:26;;;;;;;3.65;3.33;;;;;;;;;;5087744;28;20044;-87
2021/07/21 09:37:04;;;;;;;5.60;3.42;;;;;;;;;;5085839;28;20111;-83
2021/07/21 09:39:39;;;;;;;4.80;3.80;;;;;;;;;;5081570;28;20024;-83
2021/07/21 09:42:06;;;;;;;6.22;4.00;;;;;;;;;;5079518;28;20100;-79
2021/07/21 09:44:35;;;;;;;6.05;3.80;;;;;;;;;;5066960;28;20008;-82
2021/07/21 09:47:07;;;;;;;5.28;4.20;;;;;;;;;;5053190;28;20032;-83
2021/07/21 09:49:33;;;;;;;4.88;3.75;;;;;;;;;;5088057;28;20089;-84
2021/07/21 09:52:14;;;;;;;4.78;3.60;;;;;;;;;;5069443;28;20040;-84
2021/07/21 09:54:39;;;;;;;6.30;5.25;;;;;;;;;;5086379;28;20024;-84
2021/07/21 09:57:12;;;;;;;6.25;5.65;;;;;;;;;;5076412;28;20031;-85
2021/07/21 09:59:37;;;;;;;6.72;5.20;;;;;;;;;;5070520;28;20040;-84
2021/07/21 10:02:13;;;;;;;6.83;4.17;;;;;;;;;;5060348;28;20065;-82
2021/07/21 10:04:48;;;;;;;5.80;4.05;;;;;;;;;;5056302;28;20255;-84
2021/07/21 10:10:11;;;;;;;12.95;9.43;;;;;;;;;;5075600;28;20085;-85
2021/07/21 10:12:38;;;;;;;6.53;5.10;;;;;;;;;;5056643;28;20116;-83
2021/07/21 10:15:04;;;;;;;5.22;4.47;;;;;;;;;;5060455;28;20100;-83
2021/07/21 10:17:29;;;;;;;4.20;3.80;;;;;;;;;;5056723;28;20125;-83
2021/07/21 10:19:55;;;;;;;5.20;4.10;;;;;;;;;;5076083;28;20108;-84
2021/07/21 10:22:21;;;;;;;6.95;4.07;;;;;;;;;;5074787;28;20025;-84
2021/07/21 10:24:46;;;;;;;5.97;4.25;;;;;;;;;;5076506;28;20024;-85
2021/07/21 10:27:11;;;;;;;6.47;4.00;;;;;;;;;;5091990;28;20073;-84
2021/07/21 10:29:37;;;;;;;4.45;3.97;;;;;;;;;;5088104;28;20318;-84
2021/07/21 10:32:02;;;;;;;9.77;5.50;;;;;;;;;;5079525;28;20057;-83
2021/07/21 10:34:30;;;;;;;5.32;4.38;;;;;;;;;;5058441;28;20024;-83
2021/07/21 10:36:55;;;;;;;5.00;4.22;;;;;;;;;;5083566;28;20355;-83
2021/07/21 10:39:26;;;;;;;6.80;4.38;;;;;;;;;;5059386;28;20020;-85
2021/07/21 10:41:53;;;;;;;6.10;4.45;;;;;;;;;;5096413;28;20149;-84
2021/07/21 10:44:19;;;;;;;6.82;4.53;;;;;;;;;;5095311;28;20032;-82
2021/07/21 10:46:45;;;;;;;4.78;4.18;;;;;;;;;;5096537;28;20020;-81
2021/07/21 10:49:17;;;;;;;6.25;4.50;;;;;;;;;;5096414;28;20409;-82
2021/07/21 10:59:11;;;;;;;6.28;4.18;;;;;;;;;;5066721;28;20016;-75
2021/07/21 11:00:09;;;;;;;4.78;4.00;;;;;;;;;;5062365;28;20032;-75
2021/07/21 11:02:37;;;;;;;4.78;4.15;;;;;;;;;;5051030;28;20053;-74
2021/07/21 11:05:05;;;;;;;5.82;4.35;;;;;;;;;;5047393;28;20017;-74
2021/07/21 11:07:52;;;;;;;6.13;4.50;;;;;;;;;;5060554;28;20017;-74
2021/07/21 11:10:35;;;;;;;5.28;4.45;;;;;;;;;;5055653;28;20017;-77
2021/07/21 11:13:05;;;;;;;5.50;3.70;;;;;;;;;;5053720;28;20013;-76
2021/07/21 11:15:33;;;;;;;4.05;3.47;;;;;;;;;;5055418;28;20024;-76
2021/07/21 11:18:17;;;;;;;5.90;3.00;;;;;;;;;;5065999;28;20019;-77
2021/07/21 11:21:00;;;;;;;4.88;3.13;;;;;;;;;;5055449;28;20723;-77
2021/07/21 11:23:45;;;;;;;5.38;2.90;;;;;;;;;;5034239;28;20060;-76
2021/07/21 11:26:26;;;;;;;5.50;2.92;;;;;;;;;;5035500;28;20021;-77
2021/07/21 11:28:51;;;;;;;3.78;2.90;;;;;;;;;;5018028;28;20040;-77
2021/07/21 11:31:17;;;;;;;3.37;3.03;;;;;;;;;;5035093;28;20025;-77
2021/07/21 11:33:42;;;;;;;6.73;3.27;;;;;;;;;;5035173;28;20249;-76
2021/07/21 11:36:08;;;;;;;4.17;2.70;;;;;;;;;;5035364;28;20028;-76
2021/07/21 11:38:50;;;;;;;5.25;3.00;;;;;;;;;;5035353;28;20025;-79
2021/07/21 11:41:36;;;;;;;5.57;2.72;;;;;;;;;;5035333;28;20022;-77
2021/07/21 11:44:02;;;;;;;4.88;2.40;;;;;;;;;;5034023;28;20029;-75
2021/07/21 11:46:27;;;;;;;7.10;3.33;;;;;;;;;;5035187;28;20032;-77
2021/07/21 11:48:53;;;;;;;5.60;2.80;;;;;;;;;;5068087;28;20024;-77
2021/07/21 11:51:18;;;;;;;6.47;2.88;;;;;;;;;;5058694;28;20106;-79
2021/07/21 11:53:48;;;;;;;5.40;3.07;;;;;;;;;;5056596;28;20481;-76
2021/07/21 11:56:17;;;;;;;4.82;3.08;;;;;;;;;;5034988;28;20594;-77
2021/07/21 11:58:44;;;;;;;4.18;2.80;;;;;;;;;;5062219;28;20013;-77
2021/07/21 12:01:14;;;;;;;3.20;2.40;;;;;;;;;;5057792;28;20021;-77
2021/07/21 12:03:49;;;;;;;4.78;2.85;;;;;;;;;;5077067;28;20035;-77
2021/07/21 12:06:24;;;;;;;4.72;2.80;;;;;;;;;;5070380;28;20436;-76
2021/07/21 12:08:52;;;;;;;4.38;2.95;;;;;;;;;;5081028;28;20175;-77
2021/07/21 12:11:20;;;;;;;6.63;2.78;;;;;;;;;;5085498;28;20020;-76
2021/07/21 12:13:45;;;;;;;3.85;2.60;;;;;;;;;;5082813;28;20051;-76
2021/07/21 12:16:11;;;;;;;6.33;3.37;;;;;;;;;;5085093;28;20570;-77
2021/07/21 12:18:39;;;;;;;3.80;2.85;;;;;;;;;;5076586;28;20016;-79
2021/07/21 12:21:08;;;;;;;3.58;2.50;;;;;;;;;;5082874;28;20023;-77
2021/07/21 12:23:36;;;;;;;3.92;2.60;;;;;;;;;;5072093;28;20013;-77
2021/07/21 12:26:06;;;;;;;6.00;2.60;;;;;;;;;;5073632;28;20107;-77
2021/07/21 12:28:36;;;;;;;2.75;2.47;;;;;;;;;;5077285;28;20020;-77
2021/07/21 12:31:01;;;;;;;3.90;2.50;;;;;;;;;;5076602;28;20108;-77
2021/07/21 12:33:29;;;;;;;3.70;2.83;;;;;;;;;;5072034;28;20090;-77
2021/07/21 12:36:04;;;;;;;2.38;2.17;;;;;;;;;;5071173;28;20444;-77
2021/07/21 12:38:30;;;;;;;3.30;2.78;;;;;;;;;;5079924;28;20016;-76
2021/07/21 12:40:55;;;;;;;6.32;3.30;;;;;;;;;;5055329;28;20032;-77
2021/07/21 12:43:28;;;;;;;3.83;3.00;;;;;;;;;;5076520;28;20040;-78
2021/07/21 12:45:53;;;;;;;7.40;3.28;;;;;;;;;;5068180;28;20258;-78
2021/07/21 12:48:21;;;;;;;3.50;3.20;;;;;;;;;;5071914;28;20023;-76
2021/07/21 12:50:49;;;;;;;4.90;3.40;;;;;;;;;;5075426;28;20344;-77
2021/07/21 12:53:19;;;;;;;4.18;3.33;;;;;;;;;;5060034;28;20008;-77
2021/07/21 12:55:47;;;;;;;3.17;2.90;;;;;;;;;;5079893;28;20349;-77
2021/07/21 12:58:13;;;;;;;4.45;3.08;;;;;;;;;;5078459;28;20032;-77
2021/07/21 13:00:57;;;;;;;4.25;3.00;;;;;;;;;;5080289;28;20061;-77
2021/07/21 13:03:25;;;;;;;2.90;2.60;;;;;;;;;;5075523;28;20123;-77
2021/07/21 13:05:56;;;;;;;3.35;2.88;;;;;;;;;;5082536;28;20032;-77
2021/07/21 13:08:26;;;;;;;4.78;3.00;;;;;;;;;;5082203;28;20040;-77
2021/07/21 13:11:10;;;;;;;3.40;2.70;;;;;;;;;;5069991;28;20028;-77
2021/07/21 13:13:36;;;;;;;3.22;2.72;;;;;;;;;;5073712;28;20016;-77
2021/07/21 13:16:01;;;;;;;4.25;3.08;;;;;;;;;;5061052;28;20036;-77
2021/07/21 13:18:33;;;;;;;5.53;2.80;;;;;;;;;;5057076;28;20040;-77
2021/07/21 13:20:59;;;;;;;3.47;2.78;;;;;;;;;;5074931;28;20012;-77
2021/07/21 13:23:27;;;;;;;4.35;3.00;;;;;;;;;;5058899;28;20020;-77
2021/07/21 13:26:08;;;;;;;4.70;2.75;;;;;;;;;;5061730;28;20107;-77
2021/07/21 13:28:42;;;;;;;4.82;2.90;;;;;;;;;;5088473;28;20066;-77
2021/07/21 13:31:13;;;;;;;8.07;3.28;;;;;;;;;;5079602;28;20016;-77
2021/07/21 13:33:38;;;;;;;4.40;3.35;;;;;;;;;;5062672;28;20424;-77
2021/07/21 13:36:08;;;;;;;5.37;3.30;;;;;;;;;;5077474;28;20159;-77
2021/07/21 13:38:33;;;;;;;4.72;3.47;;;;;;;;;;5063257;28;20250;-77
2021/07/21 13:41:03;;;;;;;4.17;3.27;;;;;;;;;;5097259;28;20012;-77
2021/07/21 13:43:28;;;;;;;5.57;3.58;;;;;;;;;;5097666;28;20099;-78
2021/07/21 13:45:57;;;;;;;3.27;2.97;;;;;;;;;;5080861;28;20124;-77
2021/07/21 13:48:29;;;;;;;6.22;3.60;;;;;;;;;;5079642;28;20686;-77
2021/07/21 13:51:07;;;;;;;6.60;3.30;;;;;;;;;;5070511;28;20494;-77
2021/07/21 13:53:33;;;;;;;4.50;3.35;;;;;;;;;;5097285;28;20032;-77
2021/07/21 13:55:58;;;;;;;4.73;3.40;;;;;;;;;;5080699;28;20082;-77
2021/07/21 13:58:23;;;;;;;5.77;2.87;;;;;;;;;;5081972;28;20016;-77
2021/07/21 14:00:48;;;;;;;4.83;3.07;;;;;;;;;;5085565;28;20013;-77
2021/07/21 14:03:21;;;;;;;3.60;3.10;;;;;;;;;;5096961;28;20055;-77
2021/07/21 14:05:47;;;;;;;3.75;3.17;;;;;;;;;;5097215;28;20617;-77
2021/07/21 14:08:12;;;;;;;7.25;3.45;;;;;;;;;;5076846;28;20104;-77
2021/07/21 14:10:40;;;;;;;5.43;3.33;;;;;;;;;;5076586;28;20020;-77
2021/07/21 14:13:05;;;;;;;5.15;3.22;;;;;;;;;;5086649;28;20265;-77
2021/07/21 14:15:30;;;;;;;4.80;3.50;;;;;;;;;;5096766;28;20027;-78
2021/07/21 14:17:56;;;;;;;6.97;4.40;;;;;;;;;;5096948;28;20023;-78
2021/07/21 14:20:24;;;;;;;5.57;3.72;;;;;;;;;;5096310;28;20110;-78
2021/07/21 14:22:49;;;;;;;6.25;3.88;;;;;;;;;;5096922;28;20042;-78
2021/07/21 14:25:14;;;;;;;5.83;3.87;;;;;;;;;;5089459;28;20016;-78
2021/07/21 14:27:40;;;;;;;4.72;3.97;;;;;;;;;;5074780;28;20062;-78
2021/07/21 14:30:06;;;;;;;4.73;3.83;;;;;;;;;;5056518;28;20017;-77
2021/07/21 14:32:34;;;;;;;5.38;4.05;;;;;;;;;;5058715;28;20311;-80
2021/07/21 14:35:04;;;;;;;4.85;4.07;;;;;;;;;;5094141;28;20049;-76
2021/07/21 14:37:29;;;;;;;4.47;4.07;;;;;;;;;;5075396;28;20020;-77
2021/07/21 14:39:57;;;;;;;6.60;4.03;;;;;;;;;;5075747;28;20019;-77
2021/07/21 14:42:26;;;;;;;6.80;4.03;;;;;;;;;;5076276;28;20096;-77
2021/07/21 14:44:56;;;;;;;4.38;3.97;;;;;;;;;;5056394;28;20027;-77
2021/07/21 14:47:23;;;;;;;5.22;4.20;;;;;;;;;;5076377;28;20028;-76
2021/07/21 14:49:51;;;;;;;4.60;4.20;;;;;;;;;;5074310;28;20021;-76
2021/07/21 14:52:17;;;;;;;4.57;4.00;;;;;;;;;;5085803;28;20032;-77